Time;durP1;ratioP1;P1;durP2;ratioP2;P2;SDS_P1;SDS_P2;PMS_P1;PMS_P2;Temp;Humidity;BMP_temperature;BMP_pressure;BME280_temperature;BME280_humidity;BME280_pressure;Samples;Min_cycle;Max_cycle;Signal;HPM_P1;HPM_P2
2024/02/25 00:00:38;;;;;;;;;;;;;;;0.18;100.00;101971.70;105814;1257;66908;-56
2024/02/25 00:03:06;;;;;;;;;;;;;;;0.15;100.00;101975.59;105738;1259;72693;-54
2024/02/25 00:05:34;;;;;;;;;;;;;;;0.15;100.00;101975.79;105611;1257;60406;-54
2024/02/25 00:08:03;;;;;;;;;;;;;;;0.14;100.00;101979.92;105495;1251;60920;-53
2024/02/25 00:10:30;;;;;;;;;;;;;;;0.12;100.00;101985.14;105686;1257;72667;-55
2024/02/25 00:12:58;;;;;;;;;;;;;;;0.10;100.00;101980.79;105690;1253;66989;-53
2024/02/25 00:15:25;;;;;;;;;;;;;;;0.08;100.00;101977.48;105734;1256;71629;-59
2024/02/25 00:17:53;;;;;;;;;;;;;;;0.04;100.00;101983.34;105735;1253;60582;-53
2024/02/25 00:20:21;;;;;;;;;;;;;;;0.00;100.00;101981.28;105782;1253;60991;-53
2024/02/25 00:22:50;;;;;;;;;;;;;;;-0.01;100.00;101980.28;105748;1252;73879;-55
2024/02/25 00:25:18;;;;;;;;;;;;;;;-0.04;100.00;101981.83;105698;1252;67064;-53
2024/02/25 00:27:45;;;;;;;;;;;;;;;-0.08;100.00;101983.53;105655;1257;72741;-53
2024/02/25 00:30:13;;;;;;;;;;;;;;;-0.13;100.00;101983.08;105464;1252;60498;-53
2024/02/25 00:32:41;;;;;;;;;;;;;;;-0.17;100.00;101981.73;105665;1256;60342;-53
2024/02/25 00:35:09;;;;;;;;;;;;;;;-0.20;100.00;101985.47;105820;1251;72654;-54
2024/02/25 00:37:38;;;;;;;;;;;;;;;-0.25;100.00;101986.70;105924;1257;66946;-54
2024/02/25 00:40:05;;;;;;;;;;;;;;;-0.30;100.00;101981.33;105229;1256;74332;-53
2024/02/25 00:42:33;;;;;;;;;;;;;;;-0.33;100.00;101988.14;108380;1253;59314;-53
2024/02/25 00:45:01;;;;;;;;;;;;;;;-0.34;100.00;101990.56;105717;1252;60515;-53
2024/02/25 00:47:31;;;;;;;;;;;;;;;-0.36;100.00;101991.31;105699;1259;73892;-59
2024/02/25 00:49:59;;;;;;;;;;;;;;;-0.39;100.00;101994.38;105826;1253;66420;-54
2024/02/25 00:52:31;;;;;;;;;;;;;;;-0.43;100.00;101987.39;105687;1258;72731;-54
2024/02/25 00:55:00;;;;;;;;;;;;;;;-0.46;100.00;101987.85;105658;1253;60435;-55
2024/02/25 00:57:27;;;;;;;;;;;;;;;-0.48;100.00;101989.16;105969;1252;280178;-57
2024/02/25 00:59:55;;;;;;;;;;;;;;;-0.50;100.00;101991.60;105561;1258;72607;-56
2024/02/25 01:02:24;;;;;;;;;;;;;;;-0.52;100.00;101989.85;105621;1253;67022;-54
2024/02/25 01:04:52;;;;;;;;;;;;;;;-0.55;100.00;101988.41;105628;1253;71690;-55
2024/02/25 01:07:20;;;;;;;;;;;;;;;-0.59;100.00;101987.94;105912;1253;60515;-55
2024/02/25 01:09:47;;;;;;;;;;;;;;;-0.62;100.00;101986.86;105545;1258;61696;-52
2024/02/25 01:12:15;;;;;;;;;;;;;;;-0.64;100.00;101991.04;105700;1252;76287;-52
2024/02/25 01:14:44;;;;;;;;;;;;;;;-0.66;100.00;101990.80;105828;1253;66924;-53
2024/02/25 01:17:11;;;;;;;;;;;;;;;-0.69;100.00;101998.94;105720;1253;71566;-59
2024/02/25 01:19:39;;;;;;;;;;;;;;;-0.73;100.00;102004.39;105501;1257;60559;-55
2024/02/25 01:22:07;;;;;;;;;;;;;;;-0.75;100.00;102005.36;105808;1257;60428;-54
2024/02/25 01:24:35;;;;;;;;;;;;;;;-0.75;100.00;102001.43;105852;1253;73892;-54
2024/02/25 01:27:03;;;;;;;;;;;;;;;-0.78;100.00;102008.69;105836;1253;65804;-53
2024/02/25 01:29:31;;;;;;;;;;;;;;;-0.79;100.00;102010.48;105857;1259;73353;-54
2024/02/25 01:31:58;;;;;;;;;;;;;;;-0.81;100.00;102008.51;105799;1254;61763;-55
2024/02/25 01:34:28;;;;;;;;;;;;;;;-0.82;100.00;102010.63;105558;1259;60399;-53
2024/02/25 01:36:55;;;;;;;;;;;;;;;-0.83;100.00;102009.30;105575;1253;72668;-52
2024/02/25 01:39:23;;;;;;;;;;;;;;;-0.81;100.00;102005.45;106010;1253;66466;-55
2024/02/25 01:41:52;;;;;;;;;;;;;;;-0.82;100.00;101999.02;106404;1252;73489;-53
2024/02/25 01:44:20;;;;;;;;;;;;;;;-0.84;100.00;102001.31;105726;1253;60426;-54
2024/02/25 01:46:48;;;;;;;;;;;;;;;-0.85;100.00;102008.33;105762;1254;60609;-56
2024/02/25 01:49:16;;;;;;;;;;;;;;;-0.81;100.00;102004.27;105723;1258;73912;-54
2024/02/25 01:51:44;;;;;;;;;;;;;;;-0.80;100.00;102002.33;105860;1254;66825;-61
2024/02/25 01:54:12;;;;;;;;;;;;;;;-0.79;100.00;102005.72;105710;1253;72685;-54
2024/02/25 01:56:40;;;;;;;;;;;;;;;-0.81;100.00;102010.70;105390;1253;60428;-54
2024/02/25 01:59:08;;;;;;;;;;;;;;;-0.82;100.00;102004.96;105788;1259;60461;-54
2024/02/25 02:01:35;;;;;;;;;;;;;;;-0.83;100.00;102003.65;106014;1251;72671;-53
2024/02/25 02:04:03;;;;;;;;;;;;;;;-0.81;100.00;102002.03;105546;1259;66109;-54
2024/02/25 02:06:33;;;;;;;;;;;;;;;-0.80;100.00;101993.13;105700;1259;72664;-54
2024/02/25 02:09:01;;;;;;;;;;;;;;;-0.78;100.00;102000.20;105699;1257;60519;-53
2024/02/25 02:11:29;;;;;;;;;;;;;;;-0.77;100.00;101999.95;105935;1257;59662;-54
2024/02/25 02:13:57;;;;;;;;;;;;;;;-0.76;100.00;101999.08;105840;1253;73834;-53
2024/02/25 02:16:25;;;;;;;;;;;;;;;-0.74;100.00;102007.20;105861;1259;65630;-55
2024/02/25 02:18:53;;;;;;;;;;;;;;;-0.70;100.00;102000.56;105827;1258;72725;-54
2024/02/25 02:21:23;;;;;;;;;;;;;;;-0.69;100.00;102002.70;105871;1254;60525;-55
2024/02/25 02:23:53;;;;;;;;;;;;;;;-0.69;100.00;102004.60;105920;1256;60426;-55
2024/02/25 02:26:21;;;;;;;;;;;;;;;-0.71;100.00;102005.03;105736;1257;72450;-55
2024/02/25 02:28:48;;;;;;;;;;;;;;;-0.75;100.00;102000.05;105860;1253;67055;-55
2024/02/25 02:31:16;;;;;;;;;;;;;;;-0.76;100.00;101999.06;105713;1257;72730;-53
2024/02/25 02:33:44;;;;;;;;;;;;;;;-0.78;100.00;101997.46;105723;1253;60447;-54
2024/02/25 02:36:13;;;;;;;;;;;;;;;-0.79;100.00;101995.80;105696;1258;60489;-54
2024/02/25 02:38:41;;;;;;;;;;;;;;;-0.82;100.00;101999.36;105627;1257;72759;-53
2024/02/25 02:41:10;;;;;;;;;;;;;;;-0.86;100.00;102003.77;105757;1253;67351;-54
2024/02/25 02:43:37;;;;;;;;;;;;;;;-0.90;100.00;101996.78;105647;1256;71448;-54
2024/02/25 02:46:09;;;;;;;;;;;;;;;-0.91;100.00;101991.38;105733;1254;60393;-55
2024/02/25 02:48:37;;;;;;;;;;;;;;;-0.95;100.00;101989.67;105845;1253;60495;-54
2024/02/25 02:51:05;;;;;;;;;;;;;;;-0.98;100.00;101991.67;105747;1259;74059;-53
2024/02/25 02:53:32;;;;;;;;;;;;;;;-1.03;100.00;101996.65;105823;1258;65975;-54
2024/02/25 02:56:02;;;;;;;;;;;;;;;-1.11;100.00;101992.54;105725;1253;72737;-59
2024/02/25 02:58:29;;;;;;;;;;;;;;;-1.22;100.00;101999.19;105647;1253;62431;-54
2024/02/25 03:08:23;;;;;;;;;;;;;;;-1.62;100.00;102010.35;102464;1294;599956;-53
2024/02/25 03:10:51;;;;;;;;;;;;;;;-1.70;100.00;102019.20;104873;1269;60129;-54
2024/02/25 03:13:19;;;;;;;;;;;;;;;-1.75;100.00;102019.23;104756;1270;59184;-53
2024/02/25 03:15:46;;;;;;;;;;;;;;;-1.82;100.00;102020.17;104708;1267;72335;-53
2024/02/25 03:18:14;;;;;;;;;;;;;;;-1.90;100.00;102024.23;104806;1269;66336;-53
2024/02/25 03:20:42;;;;;;;;;;;;;;;-1.98;100.00;102027.45;104926;1266;72698;-53
2024/02/25 03:23:10;;;;;;;;;;;;;;;-2.08;100.00;102029.88;104766;1265;203474;-53
2024/02/25 03:25:37;;;;;;;;;;;;;;;-2.15;100.00;102032.73;104938;1263;60227;-53
2024/02/25 03:28:05;;;;;;;;;;;;;;;-2.23;100.00;102034.17;105019;1263;71601;-54
2024/02/25 03:30:33;;;;;;;;;;;;;;;-2.30;100.00;102036.31;104973;1265;67027;-55
2024/02/25 03:33:02;;;;;;;;;;;;;;;-2.35;100.00;102038.38;104927;1266;72617;-52
2024/02/25 03:35:30;;;;;;;;;;;;;;;-2.40;100.00;102040.42;104880;1266;59894;-51
2024/02/25 03:37:58;;;;;;;;;;;;;;;-2.44;100.00;102042.27;104864;1264;60735;-57
2024/02/25 03:40:26;;;;;;;;;;;;;;;-2.47;100.00;102046.45;104956;1268;73170;-52
2024/02/25 03:42:54;;;;;;;;;;;;;;;-2.50;100.00;102042.64;104933;1265;65644;-56
2024/02/25 03:45:21;;;;;;;;;;;;;;;-2.52;100.00;102042.38;105348;1260;72523;-55
2024/02/25 03:47:49;;;;;;;;;;;;;;;-2.53;100.00;102042.61;105344;1260;59664;-61
2024/02/25 03:50:17;;;;;;;;;;;;;;;-2.57;100.00;102041.58;105533;1256;59532;-52
2024/02/25 03:52:45;;;;;;;;;;;;;;;-2.63;100.00;102039.58;105617;1251;73066;-54
2024/02/25 03:55:12;;;;;;;;;;;;;;;-2.68;100.00;102040.73;105717;1252;65649;-55
2024/02/25 03:57:40;;;;;;;;;;;;;;;-2.72;100.00;102042.41;105779;1256;71435;-54
2024/02/25 04:00:08;;;;;;;;;;;;;;;-2.74;100.00;102039.08;105851;1253;59718;-57
2024/02/25 04:02:36;;;;;;;;;;;;;;;-2.77;100.00;102039.38;105716;1256;59773;-54
2024/02/25 04:05:04;;;;;;;;;;;;;;;-2.83;100.00;102040.25;105739;1252;73114;-52
2024/02/25 04:07:32;;;;;;;;;;;;;;;-2.86;100.00;102039.48;105775;1253;66906;-55
2024/02/25 04:17:26;;;;;;;;;;;;;;;-2.97;100.00;102045.33;102446;1294;599389;-56
2024/02/25 04:19:54;;;;;;;;;;;;;;;-3.06;100.00;102046.80;105128;1269;60376;-61
2024/02/25 04:22:22;;;;;;;;;;;;;;;-3.11;100.00;102055.17;104561;1266;60046;-53
2024/02/25 04:24:50;;;;;;;;;;;;;;;-3.16;100.00;102056.52;104861;1266;72471;-53
2024/02/25 04:27:18;;;;;;;;;;;;;;;-3.22;100.00;102055.16;104875;1270;66992;-53
2024/02/25 04:29:45;;;;;;;;;;;;;;;-3.24;100.00;102057.41;105064;1267;71465;-61
2024/02/25 04:32:13;;;;;;;;;;;;;;;-3.21;100.00;102058.19;104613;1268;201836;-54
2024/02/25 04:34:41;;;;;;;;;;;;;;;-3.09;100.00;102065.62;105053;1263;60917;-53
2024/02/25 04:37:09;;;;;;;;;;;;;;;-2.91;100.00;102073.52;105031;1268;71698;-52
2024/02/25 04:39:38;;;;;;;;;;;;;;;-2.74;100.00;102074.14;105056;1268;65985;-53
2024/02/25 04:42:06;;;;;;;;;;;;;;;-2.60;100.00;102071.78;105092;1267;72006;-54
2024/02/25 04:44:34;;;;;;;;;;;;;;;-2.50;100.00;102070.90;105624;1256;61760;-55
2024/02/25 04:47:02;;;;;;;;;;;;;;;-2.46;100.00;102069.25;105759;1256;59624;-53
2024/02/25 04:49:30;;;;;;;;;;;;;;;-2.44;100.00;102069.67;105792;1251;73164;-53
2024/02/25 04:51:57;;;;;;;;;;;;;;;-2.44;100.00;102070.02;105929;1251;66963;-55
2024/02/25 04:54:25;;;;;;;;;;;;;;;-2.41;100.00;102070.61;105701;1256;71734;-53
2024/02/25 04:56:54;;;;;;;;;;;;;;;-2.38;100.00;102069.79;105706;1256;60501;-54
2024/02/25 04:59:22;;;;;;;;;;;;;;;-2.35;100.00;102069.87;105707;1251;59537;-53
2024/02/25 05:01:49;;;;;;;;;;;;;;;-2.32;100.00;102069.92;105934;1256;73215;-60
2024/02/25 05:04:17;;;;;;;;;;;;;;;-2.29;100.00;102069.62;105539;1256;65444;-54
2024/02/25 05:06:45;;;;;;;;;;;;;;;-2.28;100.00;102070.13;105755;1256;73290;-53
2024/02/25 05:09:12;;;;;;;;;;;;;;;-2.22;100.00;102071.77;105850;1256;59662;-53
2024/02/25 05:11:40;;;;;;;;;;;;;;;-2.17;100.00;102071.77;105679;1253;59872;-55
2024/02/25 05:14:08;;;;;;;;;;;;;;;-2.12;100.00;102071.27;105965;1251;73123;-61
2024/02/25 05:16:35;;;;;;;;;;;;;;;-2.07;100.00;102069.36;105728;1256;67032;-55
2024/02/25 05:19:03;;;;;;;;;;;;;;;-2.03;100.00;102072.62;105659;1253;71701;-53
2024/02/25 05:21:31;;;;;;;;;;;;;;;-2.01;100.00;102074.91;105686;1253;60923;-52
2024/02/25 05:23:58;;;;;;;;;;;;;;;-1.96;100.00;102074.55;105759;1253;60131;-56
2024/02/25 05:26:26;;;;;;;;;;;;;;;-1.85;100.00;102082.84;105570;1252;73625;-53
2024/02/25 05:28:54;;;;;;;;;;;;;;;-1.74;100.00;102073.39;105723;1256;66913;-53
2024/02/25 05:31:22;;;;;;;;;;;;;;;-1.61;100.00;102078.02;105618;1256;71588;-53
2024/02/25 05:33:49;;;;;;;;;;;;;;;-1.52;100.00;102082.09;105755;1254;60925;-53
2024/02/25 05:36:20;;;;;;;;;;;;;;;-1.44;100.00;102079.89;105928;1253;59850;-59
2024/02/25 05:38:48;;;;;;;;;;;;;;;-1.31;100.00;102079.52;105747;1256;73029;-54
2024/02/25 05:41:16;;;;;;;;;;;;;;;-1.18;100.00;102079.17;105875;1256;67116;-54
2024/02/25 05:43:47;;;;;;;;;;;;;;;-1.04;100.00;102081.52;105701;1254;71545;-52
2024/02/25 05:46:14;;;;;;;;;;;;;;;-0.92;100.00;102080.66;105682;1253;60912;-54
2024/02/25 05:48:42;;;;;;;;;;;;;;;-0.77;100.00;102085.33;105796;1251;59856;-54
2024/02/25 05:51:09;;;;;;;;;;;;;;;-0.63;100.00;102081.83;105813;1253;71815;-54
2024/02/25 05:53:37;;;;;;;;;;;;;;;-0.47;100.00;102082.36;105725;1256;67184;-53
2024/02/25 05:56:05;;;;;;;;;;;;;;;-0.28;100.00;102081.67;106069;1254;71497;-60
2024/02/25 05:58:34;;;;;;;;;;;;;;;-0.13;100.00;102073.66;105506;1251;59680;-53
2024/02/25 06:01:02;;;;;;;;;;;;;;;0.04;100.00;102074.58;105629;1256;59504;-54
2024/02/25 06:03:30;;;;;;;;;;;;;;;0.44;100.00;102066.73;106147;1253;73104;-54
2024/02/25 06:05:58;;;;;;;;;;;;;;;0.98;100.00;102062.93;106082;1255;67108;-55
2024/02/25 06:08:25;;;;;;;;;;;;;;;1.39;100.00;102053.27;105915;1256;71745;-61
2024/02/25 06:10:53;;;;;;;;;;;;;;;1.67;100.00;102055.06;105689;1250;59630;-54
2024/02/25 06:13:21;;;;;;;;;;;;;;;1.90;100.00;102053.36;105854;1251;59834;-55
2024/02/25 06:15:48;;;;;;;;;;;;;;;2.13;100.00;102045.39;105798;1256;73000;-56
2024/02/25 06:18:16;;;;;;;;;;;;;;;2.41;100.00;102046.42;105828;1256;67043;-54
2024/02/25 06:20:44;;;;;;;;;;;;;;;2.72;100.00;102042.42;105793;1256;72705;-56
2024/02/25 06:23:12;;;;;;;;;;;;;;;2.93;100.00;102044.61;105752;1253;59554;-58
2024/02/25 06:25:40;;;;;;;;;;;;;;;3.05;100.00;102044.77;105672;1256;60327;-55
2024/02/25 06:28:07;;;;;;;;;;;;;;;3.30;100.00;102049.67;105813;1256;73055;-56
2024/02/25 06:30:35;;;;;;;;;;;;;;;3.60;100.00;102047.69;105942;1252;65670;-60
2024/02/25 06:33:03;;;;;;;;;;;;;;;3.81;100.00;102042.80;105791;1256;74103;-55
2024/02/25 06:35:31;;;;;;;;;;;;;;;3.97;100.00;102040.90;105777;1256;59669;-54
2024/02/25 06:37:59;;;;;;;;;;;;;;;4.10;100.00;102041.11;105770;1253;59878;-54
2024/02/25 06:40:27;;;;;;;;;;;;;;;4.13;100.00;102039.18;105750;1253;73100;-57
2024/02/25 06:42:54;;;;;;;;;;;;;;;4.10;100.00;102035.76;105741;1256;65688;-54
2024/02/25 06:45:22;;;;;;;;;;;;;;;3.94;100.00;102044.38;105629;1256;71726;-54
2024/02/25 06:47:50;;;;;;;;;;;;;;;3.84;100.00;102042.92;105858;1254;60079;-54
2024/02/25 06:50:18;;;;;;;;;;;;;;;4.01;100.00;102034.48;105828;1252;61216;-54
2024/02/25 07:00:14;;;;;;;;;;;;;;;5.37;100.00;102021.37;102383;1295;599254;-54
2024/02/25 07:02:42;;;;;;;;;;;;;;;5.67;100.00;102015.79;105022;1269;59317;-56
2024/02/25 07:05:10;;;;;;;;;;;;;;;5.91;98.90;102013.44;105088;1261;59259;-55
2024/02/25 07:07:41;;;;;;;;;;;;;;;6.10;92.60;102008.48;105384;1256;72252;-54
2024/02/25 07:10:09;;;;;;;;;;;;;;;6.11;89.08;102008.21;105709;1258;66280;-53
2024/02/25 07:12:36;;;;;;;;;;;;;;;6.05;87.53;102001.08;105718;1256;72651;-60
2024/02/25 07:15:04;;;;;;;;;;;;;;;6.01;88.80;101999.47;105599;1251;59874;-54
2024/02/25 07:17:32;;;;;;;;;;;;;;;6.05;89.09;101993.77;105849;1252;59366;-54
2024/02/25 07:20:00;;;;;;;;;;;;;;;6.27;92.10;101997.73;105788;1251;73616;-54
2024/02/25 07:22:28;;;;;;;;;;;;;;;6.60;86.19;101988.58;105708;1256;68046;-53
2024/02/25 07:24:56;;;;;;;;;;;;;;;6.78;81.71;101986.89;105864;1256;74850;-54
2024/02/25 07:27:24;;;;;;;;;;;;;;;6.82;77.13;101978.83;105587;1256;61078;-55
2024/02/25 07:29:51;;;;;;;;;;;;;;;6.70;76.95;101978.86;105882;1253;59790;-54
2024/02/25 07:32:20;;;;;;;;;;;;;;;6.74;75.00;101980.47;105774;1251;73153;-54
2024/02/25 07:34:48;;;;;;;;;;;;;;;6.76;70.34;101975.63;105930;1251;66929;-60
2024/02/25 07:37:16;;;;;;;;;;;;;;;6.80;71.40;101974.48;105803;1251;72747;-54
2024/02/25 07:39:44;;;;;;;;;;;;;;;7.05;70.10;101975.83;105544;1256;59673;-54
2024/02/25 07:42:11;;;;;;;;;;;;;;;7.22;66.29;101973.29;105671;1253;59640;-53
2024/02/25 07:44:39;;;;;;;;;;;;;;;7.31;63.20;101967.61;105902;1252;72140;-54
2024/02/25 07:47:07;;;;;;;;;;;;;;;7.50;62.97;101973.86;105838;1252;66923;-54
2024/02/25 07:49:35;;;;;;;;;;;;;;;7.79;60.25;101972.23;105822;1256;74885;-53
2024/02/25 07:52:03;;;;;;;;;;;;;;;7.93;57.67;101980.00;105768;1256;60543;-53
2024/02/25 07:54:31;;;;;;;;;;;;;;;7.89;55.03;101975.95;105817;1253;59788;-56
2024/02/25 07:56:58;;;;;;;;;;;;;;;7.79;55.19;101972.12;105829;1252;74008;-55
2024/02/25 07:59:26;;;;;;;;;;;;;;;7.84;54.29;101966.40;105615;1254;67045;-54
2024/02/25 08:01:56;;;;;;;;;;;;;;;7.77;53.97;101965.70;105721;1256;74956;-54
2024/02/25 08:04:24;;;;;;;;;;;;;;;7.66;54.13;101969.38;105726;1253;59811;-54
2024/02/25 08:06:51;;;;;;;;;;;;;;;7.53;53.77;101966.36;105769;1253;60078;-60
2024/02/25 08:09:19;;;;;;;;;;;;;;;7.36;54.32;101961.86;105683;1251;73044;-55
2024/02/25 08:11:47;;;;;;;;;;;;;;;7.30;55.52;101961.99;105670;1257;66941;-54
2024/02/25 08:14:15;;;;;;;;;;;;;;;7.28;55.99;101956.73;105629;1253;71432;-54
2024/02/25 08:16:42;;;;;;;;;;;;;;;7.29;56.65;101950.61;105673;1256;59728;-54
2024/02/25 08:19:10;;;;;;;;;;;;;;;7.27;54.69;101957.00;105673;1253;59603;-52
2024/02/25 08:21:39;;;;;;;;;;;;;;;6.88;53.23;101950.65;105248;1253;70863;-53
2024/02/25 08:24:09;;;;;;;;;;;;;;;6.45;54.54;101945.85;105737;1253;65997;-53
2024/02/25 08:26:38;;;;;;;;;;;;;;;6.08;56.05;101939.96;105966;1253;71420;-59
2024/02/25 08:29:06;;;;;;;;;;;;;;;5.83;59.19;101940.33;105682;1255;59711;-53
2024/02/25 08:31:34;;;;;;;;;;;;;;;5.85;61.33;101940.90;105583;1253;59804;-54
2024/02/25 08:34:01;;;;;;;;;;;;;;;5.87;60.57;101936.93;105743;1253;73233;-56
2024/02/25 08:36:29;;;;;;;;;;;;;;;5.84;59.91;101944.25;106155;1252;64643;-55
2024/02/25 08:38:57;;;;;;;;;;;;;;;5.77;59.15;101933.02;105852;1257;73244;-57
2024/02/25 08:41:24;;;;;;;;;;;;;;;5.75;60.99;101929.04;105557;1257;61745;-54
2024/02/25 08:43:52;;;;;;;;;;;;;;;5.81;59.86;101932.03;105719;1254;61531;-55
2024/02/25 08:46:20;;;;;;;;;;;;;;;5.78;58.38;101930.14;105818;1254;75534;-56
2024/02/25 08:48:47;;;;;;;;;;;;;;;5.76;58.84;101923.23;105945;1256;69200;-60
2024/02/25 08:51:15;;;;;;;;;;;;;;;5.80;59.39;101928.98;105487;1251;73241;-55
2024/02/25 08:53:43;;;;;;;;;;;;;;;5.92;57.24;101928.17;105727;1253;61968;-55
2024/02/25 08:56:11;;;;;;;;;;;;;;;5.95;56.43;101921.36;105831;1253;60454;-55
2024/02/25 08:58:40;;;;;;;;;;;;;;;6.02;56.40;101917.40;105727;1254;74815;-55
2024/02/25 09:01:08;;;;;;;;;;;;;;;6.09;55.64;101911.69;105886;1257;65759;-55
2024/02/25 09:03:35;;;;;;;;;;;;;;;6.18;55.44;101908.86;105703;1252;76735;-54
2024/02/25 09:06:17;;;;;;;;;;;;;;;6.30;55.79;101905.54;105457;1254;60940;-54
2024/02/25 09:08:45;;;;;;;;;;;;;;;6.45;54.55;101899.35;105983;1253;59647;-61
2024/02/25 09:11:13;;;;;;;;;;;;;;;6.53;53.25;101902.34;105598;1257;75833;-54
2024/02/25 09:13:42;;;;;;;;;;;;;;;6.55;51.98;101894.95;105681;1257;65765;-54
2024/02/25 09:16:09;;;;;;;;;;;;;;;6.52;52.18;101886.20;105789;1253;71520;-56
2024/02/25 09:18:37;;;;;;;;;;;;;;;6.58;53.16;101886.09;105666;1253;59695;-55
2024/02/25 09:21:05;;;;;;;;;;;;;;;6.72;53.52;101880.26;105763;1256;59628;-54
2024/02/25 09:23:33;;;;;;;;;;;;;;;6.82;53.10;101874.58;105642;1253;72925;-54
2024/02/25 09:26:00;;;;;;;;;;;;;;;6.86;52.38;101875.30;105719;1255;70741;-54
2024/02/25 09:28:29;;;;;;;;;;;;;;;6.84;51.75;101867.04;105794;1253;72491;-54
2024/02/25 09:30:57;;;;;;;;;;;;;;;6.74;51.47;101858.60;105896;1257;59914;-55
2024/02/25 09:33:27;;;;;;;;;;;;;;;6.70;52.00;101850.98;105663;1256;59602;-54
2024/02/25 09:36:01;;;;;;;;;;;;;;;6.75;52.64;101848.16;105720;1253;73099;-55
2024/02/25 09:38:29;;;;;;;;;;;;;;;6.81;50.98;101849.11;105673;1253;66962;-53
2024/02/25 09:41:00;;;;;;;;;;;;;;;6.77;50.16;101845.59;105788;1257;73128;-59
2024/02/25 09:43:29;;;;;;;;;;;;;;;6.75;49.82;101842.52;105568;1253;59533;-55
2024/02/25 09:45:57;;;;;;;;;;;;;;;6.73;49.78;101841.05;105539;1253;59838;-55
2024/02/25 09:48:25;;;;;;;;;;;;;;;6.74;49.90;101840.81;105706;1253;71821;-54
2024/02/25 09:50:53;;;;;;;;;;;;;;;6.73;49.61;101834.86;105835;1254;69330;-54
2024/02/25 09:53:21;;;;;;;;;;;;;;;6.71;48.78;101835.55;105718;1253;75146;-54
2024/02/25 09:55:49;;;;;;;;;;;;;;;6.63;48.27;101827.48;105995;1253;59708;-53
2024/02/25 09:58:17;;;;;;;;;;;;;;;6.67;49.19;101820.65;105737;1254;59533;-55
2024/02/25 10:00:45;;;;;;;;;;;;;;;6.80;49.60;101808.71;105707;1255;76948;-59
2024/02/25 10:03:13;;;;;;;;;;;;;;;6.96;49.09;101815.92;105379;1254;66112;-55
2024/02/25 10:05:40;;;;;;;;;;;;;;;7.18;48.09;101813.67;105859;1257;75630;-54
2024/02/25 10:08:13;;;;;;;;;;;;;;;7.35;46.54;101807.19;105736;1257;60529;-53
2024/02/25 10:10:41;;;;;;;;;;;;;;;7.48;46.29;101802.77;105790;1257;61239;-55
2024/02/25 10:13:10;;;;;;;;;;;;;;;7.65;45.27;101795.17;105815;1253;76182;-54
2024/02/25 10:15:41;;;;;;;;;;;;;;;7.74;44.61;101791.98;105532;1253;67621;-55
2024/02/25 10:18:09;;;;;;;;;;;;;;;7.80;44.30;101789.13;105594;1253;73531;-54
2024/02/25 10:20:37;;;;;;;;;;;;;;;7.87;44.26;101795.46;105702;1253;59622;-54
2024/02/25 10:23:08;;;;;;;;;;;;;;;7.95;43.12;101799.92;105818;1258;59619;-57
2024/02/25 10:25:37;;;;;;;;;;;;;;;7.98;42.94;101783.06;105872;1256;73109;-54
2024/02/25 10:28:16;;;;;;;;;;;;;;;8.08;42.81;101781.05;105711;1259;66929;-54
2024/02/25 10:31:00;;;;;;;;;;;;;;;8.16;42.62;101783.28;105769;1256;75124;-53
2024/02/25 10:33:27;;;;;;;;;;;;;;;8.19;41.72;101791.56;105853;1257;60612;-53
2024/02/25 10:36:25;;;;;;;;;;;;;;;8.16;41.33;101785.93;105832;1253;61554;-54
2024/02/25 10:38:55;;;;;;;;;;;;;;;8.19;41.16;101790.02;105718;1257;74454;-53
2024/02/25 10:41:23;;;;;;;;;;;;;;;8.34;41.50;101797.05;106006;1252;69298;-54
2024/02/25 10:43:52;;;;;;;;;;;;;;;8.47;41.62;101785.58;105941;1256;75175;-55
2024/02/25 10:46:20;;;;;;;;;;;;;;;8.57;41.73;101780.58;105579;1253;59627;-59
2024/02/25 10:48:48;;;;;;;;;;;;;;;8.55;41.12;101792.46;105744;1253;62332;-54
2024/02/25 10:51:18;;;;;;;;;;;;;;;8.40;41.10;101783.36;105728;1252;74895;-55
2024/02/25 10:53:45;;;;;;;;;;;;;;;8.28;41.04;101776.20;105753;1252;68575;-53
2024/02/25 10:56:15;;;;;;;;;;;;;;;8.19;41.25;101767.63;105778;1253;75393;-54
2024/02/25 10:58:43;;;;;;;;;;;;;;;8.22;41.55;101772.43;106017;1253;59610;-58
2024/02/25 11:01:11;;;;;;;;;;;;;;;8.37;41.07;101776.34;105636;1252;63797;-56
2024/02/25 11:03:39;;;;;;;;;;;;;;;8.45;40.33;101767.54;105939;1251;74768;-56
2024/02/25 11:06:09;;;;;;;;;;;;;;;8.49;40.19;101763.94;105819;1253;69018;-55
2024/02/25 11:08:41;;;;;;;;;;;;;;;8.52;40.06;101767.09;105753;1258;75236;-56
2024/02/25 11:11:09;;;;;;;;;;;;;;;8.61;39.75;101762.03;105719;1256;61783;-56
2024/02/25 11:13:41;;;;;;;;;;;;;;;8.60;38.96;101765.02;105730;1253;61822;-55
2024/02/25 11:16:09;;;;;;;;;;;;;;;8.54;37.96;101761.38;105789;1253;75465;-54
2024/02/25 11:18:43;;;;;;;;;;;;;;;8.39;37.37;101769.04;105467;1257;71160;-55
2024/02/25 11:21:11;;;;;;;;;;;;;;;8.25;37.72;101761.94;105657;1253;76135;-54
2024/02/25 11:23:40;;;;;;;;;;;;;;;8.26;38.02;101754.26;105882;1257;60701;-54
2024/02/25 11:26:26;;;;;;;;;;;;;;;8.30;37.62;101757.36;105775;1253;60885;-61
2024/02/25 11:29:14;;;;;;;;;;;;;;;8.22;37.62;101758.02;105715;1252;75147;-54
2024/02/25 11:31:52;;;;;;;;;;;;;;;8.05;37.40;101752.95;105845;1252;68210;-56
2024/02/25 11:34:28;;;;;;;;;;;;;;;7.93;37.55;101752.69;105762;1257;73563;-55
2024/02/25 11:37:02;;;;;;;;;;;;;;;7.87;38.07;101749.44;105603;1254;60718;-54
2024/02/25 11:39:30;;;;;;;;;;;;;;;7.90;38.30;101749.36;105724;1253;61296;-59
2024/02/25 11:42:00;;;;;;;;;;;;;;;7.97;38.28;101751.14;105653;1256;76143;-53
2024/02/25 11:44:29;;;;;;;;;;;;;;;7.99;37.75;101748.91;105745;1259;68694;-53
2024/02/25 11:46:58;;;;;;;;;;;;;;;7.92;37.51;101751.70;105801;1251;76133;-53
2024/02/25 11:49:26;;;;;;;;;;;;;;;7.79;37.52;101743.86;105918;1253;62233;-54
2024/02/25 11:51:57;;;;;;;;;;;;;;;7.66;37.68;101744.45;105417;1253;61682;-55
2024/02/25 11:54:25;;;;;;;;;;;;;;;7.56;38.06;101736.41;105721;1251;75715;-56
2024/02/25 11:56:53;;;;;;;;;;;;;;;7.51;38.76;101727.78;105857;1253;71419;-53
2024/02/25 11:59:21;;;;;;;;;;;;;;;7.53;38.59;101734.56;105565;1253;75958;-53
2024/02/25 12:01:49;;;;;;;;;;;;;;;7.52;38.21;101731.39;105657;1259;62002;-54
2024/02/25 12:04:17;;;;;;;;;;;;;;;7.49;37.84;101731.61;105782;1255;62779;-54
2024/02/25 12:06:45;;;;;;;;;;;;;;;7.49;37.89;101720.69;105681;1251;77215;-53
2024/02/25 12:09:13;;;;;;;;;;;;;;;7.51;37.44;101720.90;105672;1257;70424;-54
2024/02/25 12:11:41;;;;;;;;;;;;;;;7.53;37.45;101715.39;105735;1253;75181;-54
2024/02/25 12:14:12;;;;;;;;;;;;;;;7.59;37.63;101714.17;105635;1257;60722;-53
2024/02/25 12:16:40;;;;;;;;;;;;;;;7.71;37.38;101713.38;105789;1253;62413;-53
2024/02/25 12:19:13;;;;;;;;;;;;;;;7.82;36.83;101710.39;105796;1251;75277;-53
2024/02/25 12:21:48;;;;;;;;;;;;;;;7.85;36.44;101708.05;105380;1256;68876;-54
2024/02/25 12:24:16;;;;;;;;;;;;;;;7.90;36.28;101701.23;105551;1253;75190;-53
2024/02/25 12:26:54;;;;;;;;;;;;;;;7.92;35.84;101703.30;105786;1253;61132;-53
2024/02/25 12:29:26;;;;;;;;;;;;;;;7.88;35.90;101702.20;105623;1253;62395;-53
2024/02/25 12:31:57;;;;;;;;;;;;;;;7.90;35.68;101713.29;105778;1253;77254;-53
2024/02/25 12:34:25;;;;;;;;;;;;;;;7.88;35.22;101714.89;105635;1252;68597;-55
2024/02/25 12:36:55;;;;;;;;;;;;;;;7.81;34.97;101702.46;105903;1257;73271;-60
2024/02/25 12:39:23;;;;;;;;;;;;;;;7.75;34.69;101715.48;105579;1258;61283;-54
2024/02/25 12:41:59;;;;;;;;;;;;;;;7.68;34.80;101711.73;105738;1254;61156;-53
2024/02/25 12:44:27;;;;;;;;;;;;;;;7.63;34.81;101705.91;105639;1254;76358;-53
2024/02/25 12:46:55;;;;;;;;;;;;;;;7.61;35.03;101703.13;105738;1259;68377;-59
2024/02/25 12:49:24;;;;;;;;;;;;;;;7.60;34.98;101713.56;105842;1257;73579;-54
2024/02/25 12:51:52;;;;;;;;;;;;;;;7.54;35.05;101705.61;105635;1256;60536;-53
2024/02/25 12:54:20;;;;;;;;;;;;;;;7.46;35.27;101698.63;105707;1252;61303;-56
2024/02/25 12:56:48;;;;;;;;;;;;;;;7.42;35.55;101701.05;105805;1256;76430;-53